createdAt,value
2023-03-02T00:04:12.370Z,7.77
2023-03-02T00:09:12.599Z,7.83
2023-03-02T00:14:11.353Z,7.90
2023-03-02T00:19:10.110Z,7.85
2023-03-02T00:24:09.327Z,7.84
2023-03-02T00:29:09.884Z,7.81
2023-03-02T00:34:08.983Z,7.77
2023-03-02T00:39:09.415Z,7.82
2023-03-02T00:44:09.614Z,7.83
2023-03-02T00:49:08.567Z,7.79
2023-03-02T00:54:07.541Z,7.76
2023-03-02T00:59:07.301Z,7.50
2023-03-02T01:04:08.426Z,7.47
2023-03-02T01:09:07.375Z,7.31
2023-03-02T01:14:06.350Z,7.36
2023-03-02T01:19:05.304Z,7.43
2023-03-02T01:24:06.662Z,7.28
2023-03-02T01:29:06.106Z,7.33
2023-03-02T01:34:05.025Z,7.38
2023-03-02T01:39:05.510Z,7.48
2023-03-02T01:44:04.498Z,7.33
2023-03-02T01:49:06.283Z,6.99
2023-03-02T01:54:23.356Z,7.16
2023-03-02T01:59:29.318Z,7.05
2023-03-02T02:04:32.135Z,7.21
2023-03-02T02:09:35.016Z,7.42
2023-03-02T02:14:34.144Z,7.36
2023-03-02T02:19:46.217Z,7.10
2023-03-02T02:24:51.364Z,6.93
2023-03-02T02:29:53.424Z,6.72
2023-03-02T02:34:56.717Z,6.77
2023-03-02T02:39:56.884Z,6.79
2023-03-02T02:45:04.207Z,6.74
2023-03-02T02:50:03.763Z,6.48
2023-03-02T02:55:04.226Z,6.51
2023-03-02T03:05:37.409Z,6.31
2023-03-02T03:10:41.414Z,6.20
2023-03-02T03:15:42.094Z,5.99
2023-03-02T03:20:55.438Z,5.84
2023-03-02T03:25:54.605Z,5.86
2023-03-02T03:30:55.272Z,6.04
2023-03-02T03:35:54.404Z,6.15
2023-03-02T03:40:54.770Z,5.83
2023-03-02T03:45:55.186Z,5.61
2023-03-02T03:50:54.717Z,5.30
2023-03-02T03:55:54.432Z,5.51
2023-03-02T04:00:55.949Z,5.27
2023-03-02T04:05:54.887Z,5.14
2023-03-02T04:10:54.090Z,5.01
2023-03-02T04:15:54.397Z,5.05
2023-03-02T04:20:53.353Z,5.24
2023-03-02T04:25:52.326Z,5.41
2023-03-02T04:30:55.198Z,5.47
2023-03-02T04:35:55.389Z,5.35
2023-03-02T04:40:54.902Z,5.21
2023-03-02T04:45:55.662Z,5.23
2023-03-02T04:51:00.640Z,5.21
2023-03-02T04:55:59.849Z,5.08
2023-03-02T05:01:02.445Z,5.10
2023-03-02T05:06:02.390Z,4.97
2023-03-02T05:11:01.302Z,5.06
2023-03-02T05:16:02.272Z,4.94
2023-03-02T05:21:01.131Z,4.95
2023-03-02T05:26:00.223Z,4.83
2023-03-02T05:30:59.515Z,4.72
2023-03-02T05:36:01.427Z,4.89
2023-03-02T05:41:01.488Z,5.09
2023-03-02T05:46:01.145Z,4.89
2023-03-02T05:51:01.343Z,4.69
2023-03-02T05:56:00.330Z,4.53
2023-03-02T06:00:59.484Z,4.43
2023-03-02T06:05:58.298Z,4.45
2023-03-02T06:10:59.515Z,4.44
2023-03-02T06:15:58.456Z,4.48
2023-03-02T06:20:57.403Z,4.50
2023-03-02T06:25:56.491Z,4.74
2023-03-02T06:30:56.698Z,4.80
2023-03-02T06:35:55.860Z,4.90
2023-03-02T06:40:55.232Z,5.09
2023-03-02T06:45:54.135Z,5.17
2023-03-02T06:50:54.773Z,5.23
2023-03-02T06:55:54.172Z,5.14
2023-03-02T07:00:53.021Z,5.13
2023-03-02T07:05:57.741Z,5.04
2023-03-02T07:10:56.649Z,4.78
2023-03-02T07:15:56.374Z,5.03
2023-03-02T07:20:56.718Z,5.05
2023-03-02T07:25:55.504Z,5.07
2023-03-02T07:30:55.329Z,4.97
2023-03-02T07:35:54.288Z,4.96
2023-03-02T07:40:54.778Z,5.07
2023-03-02T07:45:53.661Z,5.24
2023-03-02T07:50:52.632Z,5.22
2023-03-02T07:55:51.494Z,5.23
2023-03-02T08:00:52.179Z,5.20
2023-03-02T08:05:50.963Z,5.12
2023-03-02T08:10:49.794Z,5.18
2023-03-02T08:15:48.586Z,5.30
2023-03-02T08:20:48.777Z,5.03
2023-03-02T08:25:48.037Z,5.12
2023-03-02T08:30:46.908Z,5.10
2023-03-02T08:35:45.902Z,5.01
2023-03-02T08:40:46.151Z,5.01
2023-03-02T08:45:44.908Z,4.93
2023-03-02T08:50:43.858Z,4.90
2023-03-02T08:55:42.701Z,5.14
2023-03-02T09:00:42.879Z,5.20
2023-03-02T09:05:41.758Z,5.38
2023-03-02T09:10:41.145Z,5.43
2023-03-02T09:15:40.687Z,5.37
2023-03-02T09:20:40.959Z,5.59
2023-03-02T09:25:39.729Z,5.39
2023-03-02T09:30:46.577Z,5.23
2023-03-02T09:35:47.980Z,5.31
2023-03-02T09:41:05.119Z,5.45
2023-03-02T09:46:16.060Z,5.71
2023-03-02T09:51:29.555Z,5.60
2023-03-02T09:56:28.830Z,5.95
2023-03-02T10:01:37.798Z,6.23
2023-03-02T10:06:40.442Z,5.98
2023-03-02T10:11:51.748Z,5.80
2023-03-02T10:16:54.184Z,5.73
2023-03-02T10:22:01.986Z,5.74
2023-03-02T10:27:12.829Z,5.82
2023-03-02T10:32:21.569Z,5.94
2023-03-02T10:37:25.455Z,6.27
2023-03-02T10:42:30.254Z,6.35
2023-03-02T10:47:30.965Z,6.37
2023-03-02T10:52:31.300Z,6.35
2023-03-02T10:57:35.578Z,6.42
2023-03-02T11:02:40.946Z,6.60
2023-03-02T11:07:41.589Z,6.86
2023-03-02T11:12:48.586Z,6.56
2023-03-02T11:17:50.515Z,6.88
2023-03-02T11:23:01.999Z,6.92
2023-03-02T11:28:10.536Z,7.07
2023-03-02T11:33:16.417Z,7.33
2023-03-02T11:38:22.416Z,7.32
2023-03-02T11:43:21.311Z,7.55
2023-03-02T11:48:26.308Z,7.41
2023-03-02T11:53:31.801Z,7.40
2023-03-02T11:58:33.077Z,7.71
2023-03-02T12:03:41.561Z,7.87
2023-03-02T12:08:44.273Z,8.40
2023-03-02T12:13:43.877Z,8.44
2023-03-02T12:18:45.517Z,8.58
2023-03-02T12:24:00.065Z,8.70
2023-03-02T12:29:03.746Z,8.79
2023-03-02T12:34:08.074Z,8.74
2023-03-02T12:39:31.565Z,9.06
2023-03-02T12:44:44.022Z,9.17
2023-03-02T12:49:49.631Z,9.09
2023-03-02T12:55:01.793Z,9.34
2023-03-02T13:00:02.650Z,9.28
2023-03-02T13:05:03.576Z,8.86
2023-03-02T13:10:09.874Z,8.67
2023-03-02T13:15:16.808Z,8.90
2023-03-02T13:20:16.496Z,8.95
2023-03-02T13:25:26.369Z,9.05
2023-03-02T13:30:28.248Z,8.91
2023-03-02T13:35:29.269Z,9.26
2023-03-02T13:40:51.834Z,9.14
2023-03-02T13:45:56.771Z,8.99
2023-03-02T13:51:05.328Z,9.28
2023-03-02T13:56:06.095Z,9.46
2023-03-02T14:01:06.555Z,9.19
2023-03-02T14:06:07.124Z,8.88
2023-03-02T14:11:08.698Z,8.96
2023-03-02T14:16:08.715Z,9.11
2023-03-02T14:21:11.925Z,9.03
2023-03-02T14:26:29.346Z,9.26
2023-03-02T14:31:29.614Z,8.55
2023-03-02T14:36:31.964Z,8.72
2023-03-02T14:41:34.416Z,8.71
2023-03-02T14:46:38.514Z,8.62
2023-03-02T14:51:40.412Z,8.68
2023-03-02T14:56:45.171Z,8.60
2023-03-02T15:01:45.640Z,8.66
2023-03-02T15:06:45.730Z,8.57
2023-03-02T15:11:44.538Z,8.66
2023-03-02T15:16:43.275Z,8.61
2023-03-02T15:21:45.841Z,8.56
2023-03-02T15:26:44.866Z,8.43
2023-03-02T15:31:43.725Z,8.37
2023-03-02T15:36:44.012Z,8.41
2023-03-02T15:41:43.262Z,8.36
2023-03-02T15:46:42.127Z,8.11
2023-03-02T15:51:43.197Z,8.18
2023-03-02T15:56:49.721Z,8.14
2023-03-02T16:01:48.765Z,8.03
2023-03-02T16:06:51.078Z,8.15
2023-03-02T16:11:54.251Z,8.03
2023-03-02T16:16:53.130Z,7.97
2023-03-02T16:21:52.150Z,7.80
2023-03-02T16:26:53.773Z,7.84
2023-03-02T16:31:54.108Z,7.76
2023-03-02T16:36:53.032Z,7.68
2023-03-02T16:41:51.918Z,7.76
2023-03-02T16:46:50.773Z,7.52
2023-03-02T16:51:57.896Z,7.51
2023-03-02T16:56:56.643Z,7.42
2023-03-02T17:01:55.493Z,7.44
2023-03-02T17:07:01.656Z,7.56
2023-03-02T17:12:04.362Z,7.65
2023-03-02T17:17:09.672Z,7.75
2023-03-02T17:22:08.752Z,7.70
2023-03-02T17:27:23.724Z,7.71
2023-03-02T17:32:24.623Z,7.68
2023-03-02T17:37:25.827Z,7.65
2023-03-02T17:42:26.868Z,7.65
2023-03-02T17:47:25.978Z,7.61
2023-03-02T17:52:24.947Z,7.70
2023-03-02T17:57:25.169Z,7.67
2023-03-02T18:02:23.950Z,7.63
2023-03-02T18:07:22.708Z,7.66
2023-03-02T18:12:21.629Z,7.75
2023-03-02T18:17:21.849Z,7.71
2023-03-02T18:22:22.121Z,7.79
2023-03-02T18:27:21.355Z,7.59
2023-03-02T18:32:21.635Z,7.38
2023-03-02T18:37:20.717Z,7.40
2023-03-02T18:42:19.812Z,7.38
2023-03-02T18:47:19.527Z,7.23
2023-03-02T18:52:20.197Z,7.33
2023-03-02T18:57:19.206Z,7.45
2023-03-02T19:02:18.211Z,7.53
2023-03-02T19:07:23.898Z,7.60
2023-03-02T19:12:22.736Z,7.63
2023-03-02T19:17:21.812Z,7.66
2023-03-02T19:22:22.012Z,7.73
2023-03-02T19:27:21.201Z,7.66
2023-03-02T19:32:20.853Z,7.64
2023-03-02T19:37:21.224Z,7.67
2023-03-02T19:42:22.058Z,7.69
2023-03-02T19:47:21.943Z,7.72
2023-03-02T19:52:22.275Z,7.68
2023-03-02T19:57:21.418Z,7.56
2023-03-02T20:02:20.451Z,7.48
2023-03-02T20:07:19.465Z,7.47
2023-03-02T20:12:20.043Z,7.49
2023-03-02T20:17:19.713Z,7.47
2023-03-02T20:22:18.828Z,7.37
2023-03-02T20:27:21.314Z,7.31
2023-03-02T20:32:20.303Z,7.29
2023-03-02T20:37:19.072Z,7.38
2023-03-02T20:42:19.317Z,7.37
2023-03-02T20:47:20.356Z,7.37
2023-03-02T20:52:20.052Z,7.37
2023-03-02T20:57:23.148Z,7.27
2023-03-02T21:02:23.207Z,7.26
2023-03-02T21:07:22.007Z,7.28
2023-03-02T21:12:22.238Z,7.32
2023-03-02T21:17:23.462Z,7.23
2023-03-02T21:22:22.354Z,7.06
2023-03-02T21:27:22.789Z,7.16
2023-03-02T21:32:21.667Z,7.18
2023-03-02T21:37:20.503Z,7.14
2023-03-02T21:42:19.576Z,7.01
2023-03-02T21:47:19.752Z,7.07
2023-03-02T21:52:18.526Z,6.96
2023-03-02T21:57:17.418Z,7.04
2023-03-02T22:02:16.276Z,7.01
2023-03-02T22:07:16.403Z,7.12
2023-03-02T22:12:15.737Z,6.96
2023-03-02T22:17:18.569Z,7.04
2023-03-02T22:22:23.160Z,7.02
2023-03-02T22:27:26.375Z,7.05
2023-03-02T22:32:27.524Z,7.02
2023-03-02T22:37:29.726Z,6.99
2023-03-02T22:42:31.394Z,7.03
2023-03-02T22:47:30.540Z,7.04
2023-03-02T22:52:39.429Z,7.16
2023-03-02T22:57:38.329Z,7.16
2023-03-02T23:02:41.531Z,7.28
2023-03-02T23:07:41.629Z,7.28
2023-03-02T23:12:40.677Z,7.34
2023-03-02T23:17:41.598Z,7.26
2023-03-02T23:22:42.626Z,7.33
2023-03-02T23:27:41.564Z,7.37
2023-03-02T23:32:40.460Z,7.38
2023-03-02T23:37:39.370Z,7.40
2023-03-02T23:42:39.583Z,7.37
2023-03-02T23:47:38.516Z,7.40
2023-03-02T23:52:37.280Z,7.47
2023-03-02T23:57:38.657Z,7.51
